Flight Track Log - Related Links

Times and Time Zones

All times are in EDT time to prevent confusion due to time zone crossing. See the SWA1798 flight status page for this flight to view local times or setup timezone preferences in your user account.

Time Position Orientation Groundspeed Altitude Reporting Facility
EDT Latitude Longitude Course Direction KTS MPH feet Rate Location/Type
Sat 08:08:08 PM 39.8667 -104.5667 91° East 187 215 7,700  Level Denver TRACON
Sat 08:09:04 PM 39.8442 -104.4942 112° Southeast 228 262 9,700 1,708 Climbing Denver Center
Sat 08:10:18 PM 39.8122 -104.3953 113° Southeast 297 342 11,400 2,622 Climbing Denver Center
Sat 08:11:19 PM 39.7975 -104.2347 97° East 363 418 15,600 3,317 Climbing Denver Center
Sat 08:12:21 PM 39.7822 -104.1003 98° East 382 440 18,200 2,683 Climbing Denver Center
Sat 08:13:00 PM 39.8445 -103.7899 91° East  Level Estimated
Sat 08:13:22 PM 39.7669 -103.9556 98° East 403 464 21,100  Level Denver Center
Sat 08:14:24 PM 39.7483 -103.7947 99° East 421 484 23,800 2,244 Climbing Denver Center
Sat 08:15:25 PM 39.7347 -103.6603 97° East 411 473 25,700 1,869 Climbing Denver Center
Sat 08:16:26 PM 39.7219 -103.4975 96° East 441 507 27,600 1,707 Climbing Denver Center
Sat 08:17:28 PM 39.7083 -103.3289 96° East 461 531 29,200 1,659 Climbing Denver Center
Sat 08:18:29 PM 39.6925 -103.1244 96° East 482 555 31,000 1,317 Climbing Denver Center
Sat 08:19:31 PM 39.6819 -103.0042 96° East 493 567 31,900 1,317 Climbing Denver Center
Sat 08:20:32 PM 39.6669 -102.8222 96° East 502 578 33,700 2,262 Climbing Denver Center
Sat 08:21:33 PM 39.6472 -102.5978 96° East 490 564 36,500 1,951 Climbing Denver Center
Sat 08:22:35 PM 39.6303 -102.4072 97° East 480 552 37,700 927 Climbing Denver Center
Sat 08:23:36 PM 39.6178 -102.2683 97° East 484 557 38,400 634 Climbing Denver Center
Sat 08:24:38 PM 39.6003 -102.0742 97° East 487 560 39,000 293 Climbing Denver Center
Sat 08:25:39 PM 39.5869 -101.9092 96° East 483 556 39,000  Level Denver Center
Sat 08:26:40 PM 39.5708 -101.7144 96° East 487 560 39,000 -341 Level Denver Center
Sat 08:27:42 PM 39.5542 -101.5228 96° East 481 554 38,300 -780 Descending Denver Center
Sat 08:28:43 PM 39.5444 -101.3594 94° East 478 550 37,400 -424 Descending Denver Center
Sat 08:30:00 PM 39.5418 -101.1694 91° East  Level FlightAware Approximate
Sat 08:30:46 PM 39.5406 -101.0042 91° East 475 547 37,000  Level Denver Center
Sat 08:31:48 PM 39.5375 -100.8375 91° East 484 557 37,000  Level Denver Center
Sat 08:32:49 PM 39.5356 -100.6456 91° East 481 554 37,000  Level Denver Center
Sat 08:33:50 PM 39.5322 -100.4806 91° East 481 554 37,000  Level Denver Center
Sat 08:34:52 PM 39.5286 -100.2889 91° East 480 552 37,000  Level Denver Center
Sat 08:35:53 PM 39.5256 -100.1272 91° East 474 545 37,000  Level Denver Center
Sat 08:37:49 PM 39.5175 -99.7892 92° East 471 542 37,000  Level Kansas City Center
Sat 08:38:50 PM 39.5125 -99.6211 92° East 469 540 37,000  Level Kansas City Center
Sat 08:39:51 PM 39.5081 -99.4472 92° East 477 549 37,000  Level Kansas City Center
Sat 08:40:52 PM 39.5039 -99.2781 92° East 474 545 37,000  Level Kansas City Center
Sat 08:41:54 PM 39.5000 -99.1111 92° East 470 541 37,000  Level Kansas City Center
Sat 08:43:02 PM 39.4933 -98.9119 92° East 470 541 37,000  Level Denver Center
Sat 08:44:57 PM 39.4836 -98.6106 92° East 460 529 37,000  Level Kansas City Center
Sat 08:45:58 PM 39.4781 -98.4464 92° East 459 528 37,000  Level Kansas City Center
Sat 08:46:59 PM 39.4711 -98.2536 93° East 450 518 37,000  Level Kansas City Center
Sat 08:48:01 PM 39.4642 -98.1022 93° East 443 510 37,000  Level Kansas City Center
Sat 08:49:02 PM 39.4572 -97.9500 93° East 444 511 37,000  Level Kansas City Center
Sat 08:50:03 PM 39.4528 -97.7808 92° East 435 501 37,000  Level Kansas City Center
Sat 08:51:04 PM 39.4467 -97.6286 93° East 427 491 37,000  Level Kansas City Center
Sat 08:52:05 PM 39.4386 -97.4847 94° East 423 487 37,000  Level Kansas City Center
Sat 08:53:07 PM 39.4311 -97.3128 93° East 427 491 37,000  Level Kansas City Center
Sat 08:54:08 PM 39.4236 -97.1647 94° East 430 495 37,000  Level Kansas City Center
Sat 08:55:09 PM 39.4156 -96.9922 93° East 430 495 37,000  Level Kansas City Center
Sat 08:56:10 PM 39.4092 -96.8442 93° East 431 496 37,000  Level Kansas City Center
Sat 08:57:11 PM 39.4017 -96.6956 94° East 432 497 37,000  Level Kansas City Center
Sat 08:58:13 PM 39.3922 -96.5206 94° East 435 501 37,000  Level Kansas City Center
Sat 08:59:14 PM 39.3844 -96.3711 94° East 437 503 37,000  Level Kansas City Center
Sat 09:00:15 PM 39.3756 -96.2147 94° East 440 506 37,000  Level Kansas City Center
Sat 09:01:16 PM 39.3661 -96.0436 94° East 441 507 37,000  Level Kansas City Center
Sat 09:02:17 PM 39.3575 -95.8953 94° East 434 499 37,000  Level Kansas City Center
Sat 09:03:18 PM 39.3472 -95.7189 94° East 441 507 37,000  Level Kansas City Center
Sat 09:04:20 PM 39.3386 -95.5706 94° East 434 499 37,000  Level Kansas City Center
Sat 09:05:21 PM 39.3275 -95.4039 95° East 435 501 37,000  Level Kansas City Center
Sat 09:06:22 PM 39.3178 -95.2506 95° East 432 497 37,000  Level Kansas City Center
Sat 09:07:23 PM 39.3094 -95.0939 94° East 429 494 37,000  Level Kansas City Center
Sat 09:08:24 PM 39.2989 -94.9453 95° East 429 494 37,000  Level Kansas City Center
Sat 09:09:25 PM 39.2889 -94.7983 95° East 429 494 37,000  Level Kansas City Center
Sat 09:10:26 PM 39.2531 -94.6322 106° East 435 501 37,000  Level Kansas City Center
Sat 09:11:27 PM 39.2103 -94.4944 112° Southeast 433 498 37,000  Level Kansas City Center
Sat 09:12:28 PM 39.1672 -94.3564 112° Southeast 433 498 37,000  Level Kansas City Center
Sat 09:13:29 PM 39.1169 -94.1967 112° Southeast 429 494 37,000 -341 Level Kansas City Center
Sat 09:14:31 PM 39.0833 -94.0581 107° East 420 483 36,300 -780 Descending Kansas City Center
Sat 09:15:32 PM 39.0625 -93.9203 101° East 410 472 35,400 -1,131 Descending Kansas City Center
Sat 09:16:33 PM 39.0372 -93.7658 102° East 396 456 34,000 -1,377 Descending Kansas City Center
Sat 09:17:34 PM 39.0161 -93.6361 102° East 388 447 32,600 -1,230 Descending Kansas City Center
Sat 09:18:35 PM 38.9919 -93.4808 101° East 393 452 31,500 -984 Descending Kansas City Center
Sat 09:19:36 PM 38.9678 -93.3417 103° East 395 455 30,600 -934 Descending Kansas City Center
Sat 09:20:37 PM 38.9436 -93.1983 102° East 404 465 29,600 -984 Descending Kansas City Center
Sat 09:21:38 PM 38.9217 -93.0583 101° East 402 463 28,600 -1,033 Descending Kansas City Center
Sat 09:22:39 PM 38.8983 -92.9206 102° East 397 457 27,500 -1,033 Descending Kansas City Center
Sat 09:23:40 PM 38.8756 -92.7864 102° East 389 448 26,500 -984 Descending Kansas City Center
Sat 09:24:41 PM 38.8519 -92.6547 103° East 382 440 25,500 -984 Descending Kansas City Center
Sat 09:25:42 PM 38.8303 -92.5250 102° East 375 432 24,500 -738 Descending Kansas City Center
Sat 09:26:43 PM 38.8083 -92.3986 103° East 367 422 24,000 -246 Descending Kansas City Center
Sat 09:27:44 PM 38.7861 -92.2747 103° East 361 415 24,000  Level Kansas City Center
Sat 09:28:45 PM 38.7644 -92.1508 103° East 357 411 24,000  Level Kansas City Center
Sat 09:29:46 PM 38.7422 -92.0264 103° East 357 411 24,000  Level Kansas City Center
Sat 09:30:47 PM 38.7206 -91.9058 103° East 352 405 24,000 -787 Level Kansas City Center
Sat 09:31:48 PM 38.7000 -91.7900 103° East 339 390 22,400 -1,721 Descending Kansas City Center
Sat 09:32:49 PM 38.6894 -91.6806 97° East 318 366 20,500 -1,869 Descending Kansas City Center
Sat 09:33:50 PM 38.6917 -91.5733 88° East 303 349 18,600 -1,869 Descending Kansas City Center
Sat 09:34:51 PM 38.6925 -91.4678 89° East 298 343 16,700 -2,016 Descending Kansas City Center
Sat 09:35:52 PM 38.6933 -91.3472 89° East 299 344 14,500 -1,967 Descending Kansas City Center
Sat 09:36:53 PM 38.6936 -91.2428 90° East 296 341 12,700 -1,721 Descending Kansas City Center
Sat 09:37:54 PM 38.6953 -91.1436 89° East 285 328 11,000 -1,279 Descending Kansas City Center
Sat 09:38:55 PM 38.7183 -91.0547 72° East 273 314 10,100 -1,140 Descending Kansas City Center
Sat 09:39:55 PM 38.7525 -90.9750 61° Northeast 258 297 8,700 -1,339 Descending Kansas City Center
Sat 09:40:56 PM 38.7878 -90.9000 59° Northeast 249 287 7,400 -1,180 Descending Kansas City Center
Sat 09:41:57 PM 38.8167 -90.8217 65° Northeast 245 282 6,300 -1,180 Descending Kansas City Center
Sat 09:42:58 PM 38.8197 -90.7367 87° East 240 276 5,000 -984 Descending Kansas City Center
Sat 09:43:59 PM 38.8247 -90.6517 86° East 240 276 4,300 -738 Descending Kansas City Center
Sat 09:45:00 PM 38.8283 -90.5703 87° East 233 268 3,500 -639 Descending Kansas City Center
Sat 09:46:01 PM 38.8181 -90.5011 101° East 220 253 3,000 -689 Descending Kansas City Center
Sat 09:47:02 PM 38.7906 -90.4461 123° Southeast 197 227 2,100 -843 Descending Kansas City Center
Sat 09:48:02 PM 38.7706 -90.4053 122° Southeast 162 186 1,300 -744 Descending Kansas City Center
Sat 09:49:03 PM 38.7514 -90.3658 122° Southeast 140 161 600 -689 Descending Kansas City Center

Login

Don't have an account? Register now (free) for customized features, flight alerts, and more!